Time;durP1;ratioP1;P1;durP2;ratioP2;P2;SDS_P1;SDS_P2;PMS_P1;PMS_P2;Temp;Humidity;BMP_temperature;BMP_pressure;BME280_temperature;BME280_humidity;BME280_pressure;Samples;Min_cycle;Max_cycle;Signal;HPM_P1;HPM_P2
2023/11/20 00:01:26;;;;;;;12.90;7.90;;;;;;;5.81;91.22;98112.74;221822;1301;25472;-77
2023/11/20 00:06:28;;;;;;;8.40;5.40;;;;;;;5.81;91.07;98112.17;221896;1299;23011;-76
2023/11/20 00:11:30;;;;;;;8.30;5.80;;;;;;;5.85;91.16;98113.84;221720;1302;22587;-76
2023/11/20 00:16:33;;;;;;;11.20;7.50;;;;;;;5.91;91.17;98119.84;221806;1292;22607;-77
2023/11/20 00:21:41;;;;;;;9.10;6.70;;;;;;;5.95;91.26;98119.34;221826;1301;22584;-77
2023/11/20 00:26:43;;;;;;;8.30;5.70;;;;;;;5.99;91.08;98118.32;221859;1302;22585;-76
2023/11/20 00:31:46;;;;;;;8.80;5.60;;;;;;;6.03;91.14;98119.20;221814;1302;22959;-77
2023/11/20 00:36:48;;;;;;;7.60;5.70;;;;;;;6.04;90.98;98121.02;221820;1302;22595;-76
2023/11/20 00:41:50;;;;;;;11.10;6.90;;;;;;;6.05;91.07;98118.75;221662;1302;22593;-76
2023/11/20 00:46:54;;;;;;;9.10;5.80;;;;;;;6.07;91.29;98121.33;221791;1302;22665;-77
2023/11/20 00:51:57;;;;;;;7.50;5.70;;;;;;;6.10;91.07;98126.43;221776;1301;24254;-77
2023/11/20 00:56:59;;;;;;;8.20;6.10;;;;;;;6.11;91.07;98128.84;221731;1302;22602;-77
2023/11/20 01:02:02;;;;;;;9.10;6.30;;;;;;;6.13;91.27;98124.61;221800;1300;22584;-77
2023/11/20 01:07:05;;;;;;;9.20;6.30;;;;;;;6.15;90.95;98124.92;221677;1302;23646;-76
2023/11/20 01:12:07;;;;;;;8.40;6.20;;;;;;;6.13;90.89;98117.14;221802;1300;24947;-76
2023/11/20 01:17:09;;;;;;;8.60;6.20;;;;;;;6.10;90.88;98113.26;221847;1302;24588;-78
2023/11/20 01:22:11;;;;;;;8.10;6.00;;;;;;;6.06;90.58;98109.94;221845;1302;22617;-76
2023/11/20 01:27:13;;;;;;;11.00;6.60;;;;;;;5.97;90.58;98107.72;221869;1299;22610;-77
2023/11/20 01:32:16;;;;;;;10.50;7.50;;;;;;;5.86;90.62;98109.55;221803;1302;22580;-77
2023/11/20 01:37:18;;;;;;;10.50;8.40;;;;;;;5.73;90.62;98112.23;221808;1301;23036;-77
2023/11/20 01:42:21;;;;;;;12.30;9.00;;;;;;;5.66;90.74;98115.63;221632;1302;22559;-77
2023/11/20 01:47:23;;;;;;;13.40;9.70;;;;;;;5.65;90.85;98108.62;221640;1302;228733;-77
2023/11/20 01:52:25;;;;;;;12.50;8.40;;;;;;;5.64;90.90;98110.11;221854;1302;22562;-77
2023/11/20 01:57:27;;;;;;;17.80;11.30;;;;;;;5.64;91.09;98109.25;222104;1302;22566;-77
2023/11/20 02:02:31;;;;;;;14.00;10.40;;;;;;;5.64;90.91;98106.75;221689;1302;22577;-76
2023/11/20 02:07:33;;;;;;;14.00;8.90;;;;;;;5.65;91.08;98114.11;221744;1301;22615;-76
2023/11/20 02:12:37;;;;;;;15.00;10.60;;;;;;;5.66;91.00;98107.44;221506;1302;22575;-77
2023/11/20 02:17:39;;;;;;;17.20;12.20;;;;;;;5.63;90.96;98106.98;221688;1293;22576;-77
2023/11/20 02:22:41;;;;;;;17.50;13.20;;;;;;;5.63;91.11;98109.17;221841;1296;22631;-77
2023/11/20 02:27:58;;;;;;;17.80;12.10;;;;;;;5.61;90.90;98110.10;221863;1295;25311;-77
2023/11/20 02:33:01;;;;;;;21.80;15.30;;;;;;;5.57;90.84;98105.30;221805;1302;25998;-77
2023/11/20 02:38:03;;;;;;;20.70;15.10;;;;;;;5.53;90.91;98095.79;221612;1302;22944;-77
2023/11/20 02:43:05;;;;;;;25.20;16.40;;;;;;;5.50;91.16;98092.54;221693;1302;22578;-77
2023/11/20 02:48:08;;;;;;;21.60;14.30;;;;;;;5.47;91.30;98082.55;221747;1302;22572;-77
2023/11/20 02:53:10;;;;;;;23.60;16.00;;;;;;;5.45;91.16;98087.27;221774;1299;22582;-78
2023/11/20 02:58:12;;;;;;;20.20;15.20;;;;;;;5.44;91.59;98092.08;221649;1298;22587;-77
2023/11/20 03:03:17;;;;;;;25.70;16.40;;;;;;;5.44;91.43;98092.52;221833;1302;22568;-78
2023/11/20 03:08:20;;;;;;;20.70;14.80;;;;;;;5.44;91.58;98087.80;221845;1302;25396;-77
2023/11/20 03:13:23;;;;;;;19.80;13.90;;;;;;;5.44;91.74;98087.56;221790;1302;22606;-77
2023/11/20 03:18:25;;;;;;;19.50;14.00;;;;;;;5.44;91.88;98089.02;221840;1298;25291;-77
2023/11/20 03:23:28;;;;;;;21.30;13.80;;;;;;;5.44;92.10;98095.46;221860;1296;22615;-77
2023/11/20 03:28:30;;;;;;;18.40;12.90;;;;;;;5.44;92.21;98097.16;221742;1302;24273;-77
2023/11/20 03:33:32;;;;;;;21.90;14.90;;;;;;;5.45;92.25;98090.77;221816;1295;22571;-76
2023/11/20 03:38:34;;;;;;;24.50;16.00;;;;;;;5.48;92.45;98086.23;221820;1301;23218;-78
2023/11/20 03:43:37;;;;;;;20.10;13.10;;;;;;;5.52;92.67;98079.61;221737;1302;22607;-77
2023/11/20 03:48:39;;;;;;;18.50;13.20;;;;;;;5.56;92.45;98076.06;221747;1302;22583;-76
2023/11/20 03:53:41;;;;;;;20.20;14.60;;;;;;;5.57;92.90;98073.30;221840;1298;22585;-77
2023/11/20 03:58:45;;;;;;;29.90;20.30;;;;;;;5.59;93.05;98070.09;221811;1298;25505;-78
2023/11/20 04:03:47;;;;;;;23.90;16.40;;;;;;;5.62;92.97;98064.58;221733;1301;22606;-78
2023/11/20 04:08:49;;;;;;;19.50;13.90;;;;;;;5.65;92.99;98058.07;221602;1298;22601;-78
2023/11/20 04:13:51;;;;;;;21.20;13.50;;;;;;;5.69;93.06;98052.22;221853;1299;22570;-77
2023/11/20 04:18:54;;;;;;;19.60;12.90;;;;;;;5.73;93.11;98046.73;221756;1302;22601;-77
2023/11/20 04:23:56;;;;;;;21.30;13.80;;;;;;;5.77;92.97;98044.67;221689;1299;22590;-77
2023/11/20 04:28:58;;;;;;;23.20;15.00;;;;;;;5.79;93.21;98037.13;221761;1295;22567;-78
2023/11/20 04:34:01;;;;;;;17.70;13.50;;;;;;;5.81;93.26;98032.70;221723;1302;22596;-77
2023/11/20 04:39:03;;;;;;;20.60;14.80;;;;;;;5.81;93.14;98032.30;221694;1301;22583;-77
2023/11/20 04:44:05;;;;;;;19.10;12.60;;;;;;;5.83;93.24;98033.70;221836;1302;22673;-77
2023/11/20 04:49:08;;;;;;;21.00;13.80;;;;;;;5.84;93.38;98033.40;221808;1295;22687;-78
2023/11/20 04:54:11;;;;;;;22.60;15.80;;;;;;;5.87;93.24;98030.96;221696;1296;23254;-79
2023/11/20 04:59:13;;;;;;;21.60;14.30;;;;;;;5.89;93.19;98035.96;221757;1301;22668;-77
2023/11/20 05:04:15;;;;;;;22.60;15.60;;;;;;;5.92;93.33;98034.99;221845;1299;22568;-77
2023/11/20 05:09:18;;;;;;;19.10;13.00;;;;;;;5.92;93.34;98022.02;221810;1295;24477;-78
2023/11/20 05:14:22;;;;;;;22.80;13.00;;;;;;;5.92;93.24;98023.76;221837;1295;22603;-78
2023/11/20 05:19:24;;;;;;;19.10;13.40;;;;;;;5.93;93.33;98017.11;221709;1301;22603;-78
2023/11/20 05:24:26;;;;;;;26.40;16.30;;;;;;;5.95;93.24;98015.54;221721;1301;22551;-78
2023/11/20 05:29:28;;;;;;;24.60;15.20;;;;;;;5.95;93.25;98016.52;221765;1301;22659;-78
2023/11/20 05:34:31;;;;;;;23.10;15.70;;;;;;;5.96;93.31;98016.81;221776;1295;22747;-78
2023/11/20 05:39:33;;;;;;;15.50;11.20;;;;;;;5.96;93.55;98009.96;221757;1302;22568;-77
2023/11/20 05:44:35;;;;;;;19.40;13.10;;;;;;;5.97;93.53;98009.86;221713;1301;22606;-77
2023/11/20 05:49:37;;;;;;;19.80;14.80;;;;;;;5.99;93.54;98013.52;221605;1301;23647;-77
2023/11/20 05:54:40;;;;;;;19.20;13.80;;;;;;;6.01;93.98;98017.27;221828;1301;22587;-77
2023/11/20 05:59:45;;;;;;;21.00;14.50;;;;;;;6.04;93.58;98015.91;221764;1299;22608;-77
2023/11/20 06:04:47;;;;;;;21.70;14.50;;;;;;;6.07;93.55;98021.00;221680;1301;22577;-78
2023/11/20 06:09:50;;;;;;;19.60;13.30;;;;;;;6.09;93.63;98018.98;221803;1295;22579;-76
2023/11/20 06:14:53;;;;;;;19.90;13.20;;;;;;;6.11;93.57;98023.98;221769;1295;22598;-78
2023/11/20 06:19:56;;;;;;;21.60;13.30;;;;;;;6.12;93.53;98023.29;221689;1299;22585;-77
2023/11/20 06:24:58;;;;;;;19.40;14.10;;;;;;;6.16;93.67;98019.16;221744;1302;25003;-77
2023/11/20 06:30:00;;;;;;;20.50;13.30;;;;;;;6.20;93.70;98022.02;221688;1301;22601;-77
2023/11/20 06:35:02;;;;;;;22.90;15.10;;;;;;;6.25;93.84;98026.50;221821;1301;22615;-78
2023/11/20 06:40:06;;;;;;;21.30;14.30;;;;;;;6.31;93.95;98039.84;221269;1284;24331;-74
2023/11/20 06:45:09;;;;;;;19.50;13.50;;;;;;;6.38;93.80;98041.48;221371;1295;24269;-74
2023/11/20 06:50:12;;;;;;;19.90;14.30;;;;;;;6.43;93.56;98040.52;221540;1282;22591;-74
2023/11/20 06:55:14;;;;;;;25.60;15.60;;;;;;;6.48;93.39;98052.03;221206;1298;22556;-74
2023/11/20 07:00:18;;;;;;;27.00;17.50;;;;;;;6.53;93.60;98057.64;220849;1282;22596;-76
2023/11/20 07:05:20;;;;;;;23.40;14.80;;;;;;;6.57;93.45;98064.48;220886;1286;22640;-76
2023/11/20 07:10:23;;;;;;;21.90;14.10;;;;;;;6.60;93.43;98061.54;221122;1285;22590;-75
2023/11/20 07:15:25;;;;;;;23.10;14.60;;;;;;;6.62;93.40;98066.73;220925;1288;25287;-74
2023/11/20 07:20:28;;;;;;;19.00;14.30;;;;;;;6.64;93.33;98064.92;220845;1282;23180;-74
2023/11/20 07:25:34;;;;;;;24.20;15.90;;;;;;;6.68;93.24;98059.95;220813;1279;22640;-74
2023/11/20 07:30:37;;;;;;;24.00;15.50;;;;;;;6.71;93.05;98062.89;221200;1279;22702;-74
2023/11/20 07:35:39;;;;;;;23.70;16.00;;;;;;;6.73;93.08;98060.55;221032;1280;22576;-74
2023/11/20 07:40:42;;;;;;;25.00;16.60;;;;;;;6.77;92.93;98069.04;221147;1288;25456;-74
2023/11/20 07:45:45;;;;;;;20.30;13.70;;;;;;;6.80;92.99;98062.63;221196;1280;22593;-82
2023/11/20 07:50:48;;;;;;;21.60;14.50;;;;;;;6.86;93.01;98062.36;221014;1280;23215;-77
2023/11/20 07:55:51;;;;;;;22.90;14.40;;;;;;;6.92;93.16;98059.71;221072;1292;23101;-77
2023/11/20 08:00:54;;;;;;;22.90;14.70;;;;;;;7.02;93.17;98060.99;220741;1292;22614;-79
2023/11/20 08:05:56;;;;;;;19.90;13.20;;;;;;;7.08;92.95;98058.95;220748;1280;22585;-78
2023/11/20 08:11:14;;;;;;;19.80;13.90;;;;;;;7.18;92.81;98058.29;220722;1280;22596;-79
2023/11/20 08:16:16;;;;;;;17.80;13.80;;;;;;;7.29;93.07;98054.02;220567;1288;22640;-78
2023/11/20 08:21:18;;;;;;;21.30;14.50;;;;;;;7.36;92.88;98051.36;220666;1282;24283;-79
2023/11/20 08:26:21;;;;;;;22.60;15.70;;;;;;;7.39;92.57;98044.75;220702;1288;22595;-78
2023/11/20 08:31:24;;;;;;;21.50;15.50;;;;;;;7.44;92.71;98048.48;220428;1282;22596;-76
2023/11/20 08:36:27;;;;;;;20.20;14.20;;;;;;;7.49;92.57;98044.41;220704;1288;22587;-74
2023/11/20 08:41:29;;;;;;;22.20;14.30;;;;;;;7.51;92.44;98045.92;221030;1282;22605;-75
2023/11/20 08:46:31;;;;;;;43.70;18.10;;;;;;;7.49;92.49;98051.25;221129;1292;22568;-76
2023/11/20 08:51:33;;;;;;;20.20;13.70;;;;;;;7.48;92.46;98052.77;221107;1291;24276;-76
2023/11/20 08:56:36;;;;;;;23.90;14.80;;;;;;;7.46;92.57;98054.44;221152;1278;22590;-76
2023/11/20 09:01:38;;;;;;;18.50;13.00;;;;;;;7.43;92.49;98052.98;221139;1288;22944;-77
2023/11/20 09:06:40;;;;;;;21.80;14.40;;;;;;;7.44;92.83;98048.47;221213;1291;22568;-76
2023/11/20 09:11:43;;;;;;;17.40;12.50;;;;;;;7.53;92.72;98049.52;221021;1278;22590;-75
2023/11/20 09:16:45;;;;;;;21.00;14.10;;;;;;;7.61;92.81;98046.91;221089;1295;22606;-76
2023/11/20 09:21:48;;;;;;;20.70;14.10;;;;;;;7.65;93.06;98044.21;221134;1288;23482;-74
2023/11/20 09:26:50;;;;;;;26.00;16.40;;;;;;;7.66;92.84;98037.02;221119;1288;22693;-76
2023/11/20 09:31:55;;;;;;;20.10;14.40;;;;;;;7.67;92.74;98029.67;221115;1298;22992;-75
2023/11/20 09:36:58;;;;;;;21.20;14.30;;;;;;;7.64;92.77;98035.05;221206;1295;22711;-75
2023/11/20 09:42:00;;;;;;;20.70;12.80;;;;;;;7.62;92.71;98034.19;221238;1280;22586;-76
2023/11/20 09:47:02;;;;;;;24.50;15.00;;;;;;;7.60;92.83;98031.16;221352;1288;23000;-75
2023/11/20 09:52:07;;;;;;;20.50;14.60;;;;;;;7.58;92.74;98030.29;221333;1283;22583;-75
2023/11/20 09:57:09;;;;;;;23.60;15.40;;;;;;;7.60;92.98;98022.67;221274;1288;22575;-74
2023/11/20 10:02:13;;;;;;;22.10;15.50;;;;;;;7.64;93.11;98014.39;221242;1280;22535;-75
2023/11/20 10:07:17;;;;;;;21.20;14.30;;;;;;;7.68;93.14;98008.38;221149;1282;22598;-75
2023/11/20 10:12:23;;;;;;;17.70;12.80;;;;;;;7.72;92.91;97998.05;220987;1282;25122;-75
2023/11/20 10:17:27;;;;;;;16.90;12.30;;;;;;;7.72;92.65;97992.46;221118;1295;22639;-75
2023/11/20 10:22:34;;;;;;;30.50;18.90;;;;;;;7.71;93.10;97988.33;221055;1288;22871;-76
2023/11/20 10:27:37;;;;;;;20.60;14.10;;;;;;;7.78;93.10;97987.17;220945;1296;22610;-76
2023/11/20 10:32:43;;;;;;;24.70;16.50;;;;;;;7.91;93.13;97986.06;221176;1295;22635;-75
2023/11/20 10:38:07;;;;;;;19.30;13.70;;;;;;;8.04;93.04;97980.20;221031;1295;25336;-75
2023/11/20 10:43:11;;;;;;;18.60;14.50;;;;;;;8.09;92.63;97978.91;221205;1301;22566;-75
2023/11/20 10:48:15;;;;;;;19.70;14.90;;;;;;;8.09;92.74;97973.61;221231;1280;24986;-75
2023/11/20 10:53:18;;;;;;;17.90;14.10;;;;;;;8.13;92.91;97966.24;221223;1285;23102;-74
2023/11/20 10:58:26;;;;;;;20.60;14.40;;;;;;;8.19;92.71;97960.31;221152;1296;22713;-75
2023/11/20 11:03:32;;;;;;;20.20;14.40;;;;;;;8.29;93.08;97955.58;221151;1290;22567;-75
2023/11/20 11:08:37;;;;;;;16.30;12.20;;;;;;;8.38;92.74;97956.62;221346;1301;22566;-74
2023/11/20 11:13:41;;;;;;;13.70;10.90;;;;;;;8.45;92.84;97946.48;220969;1285;22587;-76
2023/11/20 11:18:49;;;;;;;15.40;11.20;;;;;;;8.48;92.57;97946.25;221225;1289;24297;-76
2023/11/20 11:23:54;;;;;;;14.10;10.80;;;;;;;8.48;92.84;97936.29;220815;1285;22572;-76
2023/11/20 11:29:04;;;;;;;15.00;10.50;;;;;;;8.49;92.89;97931.08;221135;1285;22594;-76
2023/11/20 11:34:22;;;;;;;;;;;;;;;8.48;92.59;97926.38;221105;1298;22553;-73
2023/11/20 11:39:39;;;;;;;56.30;13.60;;;;;;;8.54;92.41;97921.71;220981;1282;22575;-74
2023/11/20 11:45:03;;;;;;;61.20;15.90;;;;;;;8.56;92.63;97916.66;221061;1279;22578;-74
2023/11/20 11:50:06;;;;;;;42.90;12.90;;;;;;;8.57;92.38;97910.79;221093;1279;22627;-75
2023/11/20 11:55:13;;;;;;;20.90;11.10;;;;;;;8.56;92.73;97907.30;221137;1282;25332;-76
2023/11/20 12:00:16;;;;;;;14.00;8.80;;;;;;;8.56;92.87;97908.77;221285;1279;22574;-75
2023/11/20 12:05:19;;;;;;;19.10;10.90;;;;;;;8.48;92.62;97905.68;221106;1295;22600;-75
2023/11/20 12:10:42;;;;;;;13.30;10.40;;;;;;;8.46;93.03;97896.33;221137;1280;22620;-76
2023/11/20 12:15:47;;;;;;;17.80;9.40;;;;;;;8.46;92.75;97897.45;221128;1285;22575;-76
2023/11/20 12:20:49;;;;;;;14.40;10.20;;;;;;;8.44;92.84;97896.77;221021;1295;22596;-75
2023/11/20 12:25:55;;;;;;;12.60;9.60;;;;;;;8.43;92.89;97892.52;221114;1288;22954;-75
2023/11/20 12:31:00;;;;;;;15.50;10.40;;;;;;;8.49;93.04;97887.66;221073;1295;22617;-76
2023/11/20 12:36:03;;;;;;;12.40;8.40;;;;;;;8.61;93.11;97883.83;221212;1298;22605;-75
2023/11/20 12:41:10;;;;;;;11.40;8.30;;;;;;;8.69;92.89;97880.56;221245;1282;22583;-75
2023/11/20 12:46:17;;;;;;;12.10;8.20;;;;;;;8.75;92.93;97878.36;221275;1288;22605;-75
2023/11/20 12:51:20;;;;;;;15.60;11.50;;;;;;;8.78;92.66;97878.04;221231;1298;22708;-77
2023/11/20 12:56:23;;;;;;;22.30;6.70;;;;;;;8.81;93.11;97868.73;221287;1299;22597;-74
2023/11/20 13:01:27;;;;;;;10.90;8.40;;;;;;;8.81;92.45;97858.80;221069;1283;22574;-77
2023/11/20 13:06:30;;;;;;;13.70;9.70;;;;;;;8.77;92.79;97864.05;221274;1284;22574;-75
2023/11/20 13:11:34;;;;;;;12.20;8.90;;;;;;;8.74;92.65;97863.22;221195;1298;22598;-74
2023/11/20 13:16:40;;;;;;;14.80;9.80;;;;;;;8.71;93.05;97859.04;221344;1282;22583;-76
2023/11/20 13:21:42;;;;;;;11.00;8.40;;;;;;;8.69;92.82;97858.26;221367;1295;22578;-74
2023/11/20 13:26:45;;;;;;;14.20;10.40;;;;;;;8.67;93.33;97856.42;221261;1284;23387;-75
2023/11/20 13:31:48;;;;;;;12.90;10.50;;;;;;;8.64;93.80;97857.45;221221;1288;22610;-75
2023/11/20 13:36:50;;;;;;;12.60;10.40;;;;;;;8.62;93.43;97853.84;221139;1295;22682;-75
2023/11/20 13:41:53;;;;;;;12.40;9.70;;;;;;;8.62;93.74;97854.45;221134;1282;22808;-77
2023/11/20 13:46:55;;;;;;;17.70;12.70;;;;;;;8.64;93.62;97848.91;221065;1284;175455;-75
2023/11/20 13:51:57;;;;;;;13.10;9.50;;;;;;;8.70;93.64;97843.55;220966;1288;22579;-72
2023/11/20 13:57:04;;;;;;;13.90;10.50;;;;;;;8.74;93.55;97844.61;221032;1282;22595;-78
2023/11/20 14:02:51;;;;;;;13.90;11.20;;;;;;;8.78;93.70;97848.14;220676;1282;23068;-74
2023/11/20 14:08:14;;;;;;;13.50;10.40;;;;;;;8.81;93.72;97852.23;220891;1279;22857;-79
2023/11/20 14:13:28;;;;;;;18.90;13.20;;;;;;;8.80;93.40;97843.29;220536;1285;25327;-76
2023/11/20 14:18:31;;;;;;;21.30;14.40;;;;;;;8.84;93.82;97845.73;220377;1282;22585;-75
2023/11/20 14:23:35;;;;;;;15.60;12.70;;;;;;;8.86;93.69;97846.10;220431;1291;22588;-74
2023/11/20 14:28:37;;;;;;;18.50;13.60;;;;;;;8.86;93.17;97845.94;220495;1298;22612;-77
2023/11/20 14:33:41;;;;;;;17.40;12.40;;;;;;;8.81;93.42;97846.85;220405;1282;24458;-75
2023/11/20 14:38:43;;;;;;;21.70;14.60;;;;;;;8.77;93.42;97847.16;220405;1282;22623;-75
2023/11/20 14:43:46;;;;;;;19.20;13.50;;;;;;;8.75;93.68;97845.35;220880;1292;22579;-78
2023/11/20 14:48:48;;;;;;;16.90;11.70;;;;;;;8.73;93.50;97844.50;220910;1282;24254;-76
2023/11/20 14:53:51;;;;;;;16.00;12.00;;;;;;;8.73;93.53;97843.68;220851;1288;22579;-77
2023/11/20 14:58:55;;;;;;;15.10;11.20;;;;;;;8.72;93.68;97848.17;220936;1282;25996;-77
2023/11/20 15:03:57;;;;;;;15.70;12.30;;;;;;;8.71;93.64;97855.05;220943;1288;22591;-76
2023/11/20 15:09:00;;;;;;;13.20;9.50;;;;;;;8.72;93.67;97852.80;221161;1295;22596;-77
2023/11/20 15:14:02;;;;;;;13.70;8.60;;;;;;;8.70;93.57;97856.55;221146;1301;22609;-79
2023/11/20 15:19:05;;;;;;;13.60;7.50;;;;;;;8.67;93.65;97859.58;221176;1302;22680;-75
2023/11/20 15:24:07;;;;;;;11.20;7.40;;;;;;;8.66;93.67;97864.47;220932;1303;22566;-76
2023/11/20 15:29:09;;;;;;;9.60;6.30;;;;;;;8.65;93.55;97863.38;221033;1288;22692;-76
2023/11/20 15:34:11;;;;;;;6.70;5.20;;;;;;;8.64;94.11;97864.83;221457;1298;22575;-76
2023/11/20 15:39:15;;;;;;;9.10;6.00;;;;;;;8.64;93.75;97858.87;221554;1301;22587;-75
2023/11/20 15:44:17;;;;;;;7.60;6.10;;;;;;;8.62;93.87;97854.45;221518;1293;22571;-76
2023/11/20 15:49:19;;;;;;;9.80;6.20;;;;;;;8.60;93.86;97853.33;221396;1298;22571;-76
2023/11/20 15:54:22;;;;;;;9.80;7.00;;;;;;;8.58;93.96;97860.73;221450;1301;22587;-76
2023/11/20 15:59:24;;;;;;;9.40;6.70;;;;;;;8.62;94.11;97865.99;221646;1303;22579;-76
2023/11/20 16:04:26;;;;;;;11.30;7.20;;;;;;;8.64;94.25;97870.66;221705;1298;23225;-76
2023/11/20 16:09:28;;;;;;;9.40;6.70;;;;;;;8.66;93.98;97875.98;221618;1298;22638;-75
2023/11/20 16:14:31;;;;;;;10.70;7.40;;;;;;;8.67;93.82;97875.90;221508;1303;22582;-75
2023/11/20 16:19:33;;;;;;;9.50;6.50;;;;;;;8.67;93.77;97881.50;221461;1303;22598;-75
2023/11/20 16:24:35;;;;;;;11.80;7.20;;;;;;;8.68;93.99;97884.90;221299;1292;22593;-75
2023/11/20 16:29:37;;;;;;;12.20;8.50;;;;;;;8.68;93.87;97888.15;221608;1298;22599;-75
2023/11/20 16:34:39;;;;;;;12.90;8.00;;;;;;;8.69;93.98;97894.19;221647;1301;22588;-76
2023/11/20 16:39:41;;;;;;;12.50;9.20;;;;;;;8.69;93.85;97897.09;221700;1301;23039;-74
2023/11/20 16:44:43;;;;;;;14.10;9.80;;;;;;;8.67;93.58;97900.48;221652;1301;25074;-75
2023/11/20 16:49:45;;;;;;;11.00;9.20;;;;;;;8.65;94.00;97900.60;221647;1301;22638;-76
2023/11/20 16:54:48;;;;;;;13.90;8.80;;;;;;;8.61;93.56;97893.17;221673;1301;22731;-75
2023/11/20 16:59:54;;;;;;;9.60;7.10;;;;;;;8.57;93.96;97900.30;221423;1303;24699;-77
2023/11/20 17:04:56;;;;;;;8.20;5.70;;;;;;;8.53;93.94;97901.90;221565;1301;23512;-75
2023/11/20 17:09:58;;;;;;;10.70;6.30;;;;;;;8.52;93.87;97901.00;221576;1301;22582;-77
2023/11/20 17:15:00;;;;;;;12.20;6.70;;;;;;;8.52;93.95;97903.67;221444;1301;22687;-74
2023/11/20 17:20:04;;;;;;;13.60;8.70;;;;;;;8.53;93.92;97904.05;221527;1301;22589;-75
2023/11/20 17:25:06;;;;;;;13.80;9.10;;;;;;;8.56;93.80;97911.20;221510;1298;22590;-76
2023/11/20 17:30:11;;;;;;;14.80;11.00;;;;;;;8.59;94.19;97903.27;221682;1301;22578;-76
2023/11/20 17:35:14;;;;;;;19.70;12.70;;;;;;;8.61;93.85;97900.77;221587;1295;22717;-76
2023/11/20 17:40:17;;;;;;;16.30;12.30;;;;;;;8.62;94.02;97903.88;221472;1303;22592;-76
2023/11/20 17:45:19;;;;;;;18.40;12.90;;;;;;;8.62;93.88;97911.80;221725;1300;22689;-75
2023/11/20 17:50:23;;;;;;;17.30;12.30;;;;;;;8.62;94.03;97913.42;221651;1301;22629;-76
2023/11/20 17:55:25;;;;;;;20.20;13.40;;;;;;;8.60;93.73;97916.67;221680;1300;22590;-76
2023/11/20 18:00:27;;;;;;;13.00;10.20;;;;;;;8.59;93.99;97912.35;221638;1303;22567;-75
2023/11/20 18:05:30;;;;;;;12.10;8.10;;;;;;;8.59;93.85;97914.94;221663;1301;22697;-75
2023/11/20 18:10:32;;;;;;;10.10;7.60;;;;;;;8.57;93.88;97920.03;221634;1302;23057;-75
2023/11/20 18:15:34;;;;;;;11.30;7.70;;;;;;;8.55;94.05;97924.84;221677;1301;22713;-75
2023/11/20 18:20:36;;;;;;;10.70;8.70;;;;;;;8.53;93.84;97924.59;221605;1301;23019;-76
2023/11/20 18:25:38;;;;;;;11.10;7.30;;;;;;;8.50;93.75;97923.67;221597;1301;22578;-75
2023/11/20 18:30:40;;;;;;;8.90;6.90;;;;;;;8.48;93.74;97926.01;221606;1300;22565;-74
2023/11/20 18:35:42;;;;;;;9.30;6.80;;;;;;;8.46;94.02;97931.10;221662;1303;22600;-75
2023/11/20 18:40:45;;;;;;;8.20;6.70;;;;;;;8.45;94.07;97926.95;221653;1301;24675;-75
2023/11/20 18:45:47;;;;;;;10.00;7.20;;;;;;;8.44;94.21;97927.21;221654;1301;22617;-76
2023/11/20 18:50:51;;;;;;;11.10;6.90;;;;;;;8.45;93.93;97927.90;221423;1300;22566;-76
2023/11/20 18:55:54;;;;;;;11.40;8.20;;;;;;;8.42;94.01;97930.66;221428;1303;22577;-76
2023/11/20 19:00:57;;;;;;;15.10;10.90;;;;;;;8.40;94.09;97933.07;221549;1301;22605;-75
2023/11/20 19:05:59;;;;;;;12.50;9.90;;;;;;;8.37;93.91;97936.20;221425;1301;22592;-75
2023/11/20 19:11:01;;;;;;;16.10;12.80;;;;;;;8.36;93.86;97945.02;221552;1301;22592;-75
2023/11/20 19:16:08;;;;;;;17.30;12.80;;;;;;;8.34;94.31;97946.95;221496;1288;24434;-76
2023/11/20 19:21:10;;;;;;;18.20;13.70;;;;;;;8.34;94.42;97949.79;221672;1280;25014;-75
2023/11/20 19:26:15;;;;;;;17.10;12.90;;;;;;;8.34;94.26;97952.66;221691;1301;22645;-76
2023/11/20 19:31:17;;;;;;;17.50;12.90;;;;;;;8.31;94.14;97958.21;221699;1297;22602;-75
2023/11/20 19:36:20;;;;;;;16.00;12.30;;;;;;;8.28;94.25;97954.84;221510;1301;23050;-75
2023/11/20 19:41:23;;;;;;;15.80;10.70;;;;;;;8.27;94.60;97955.11;221683;1298;22588;-76
2023/11/20 19:46:27;;;;;;;14.40;11.50;;;;;;;8.25;94.36;97955.34;221532;1303;22571;-76
2023/11/20 19:51:29;;;;;;;16.10;12.00;;;;;;;8.24;94.35;97957.89;221314;1302;22635;-75
2023/11/20 19:56:33;;;;;;;15.80;12.00;;;;;;;8.24;94.33;97963.31;221383;1303;22598;-76
2023/11/20 20:01:36;;;;;;;18.60;13.70;;;;;;;8.25;94.62;97960.98;221667;1303;22590;-74
2023/11/20 20:06:38;;;;;;;19.70;14.00;;;;;;;8.23;94.46;97956.79;221585;1301;22701;-75
2023/11/20 20:11:40;;;;;;;22.00;14.70;;;;;;;8.21;94.51;97957.81;221553;1301;22567;-75
2023/11/20 20:16:43;;;;;;;19.00;13.20;;;;;;;8.19;94.29;97953.31;221511;1303;23030;-76
2023/11/20 20:21:45;;;;;;;18.40;14.60;;;;;;;8.17;94.57;97959.90;221489;1289;22614;-76
2023/11/20 20:26:47;;;;;;;17.70;12.50;;;;;;;8.18;94.63;97961.80;221638;1301;22637;-75
2023/11/20 20:31:49;;;;;;;15.00;11.10;;;;;;;8.21;94.44;97965.38;221524;1301;22620;-76
2023/11/20 20:36:51;;;;;;;15.30;11.20;;;;;;;8.20;94.35;97967.20;221511;1303;22595;-75
2023/11/20 20:41:54;;;;;;;11.60;8.10;;;;;;;8.21;94.33;97972.02;221655;1303;22662;-76
2023/11/20 20:46:56;;;;;;;10.70;7.90;;;;;;;8.23;94.23;97973.45;221712;1301;22726;-75
2023/11/20 20:51:59;;;;;;;11.20;8.40;;;;;;;8.26;94.20;97971.05;221425;1303;22578;-75
2023/11/20 20:57:01;;;;;;;9.30;7.80;;;;;;;8.28;94.38;97965.48;221547;1303;22612;-75
2023/11/20 21:02:04;;;;;;;13.20;9.20;;;;;;;8.30;94.24;97968.94;221686;1303;22583;-76
2023/11/20 21:07:06;;;;;;;11.90;9.50;;;;;;;8.31;93.97;97969.30;221317;1303;22717;-76
2023/11/20 21:12:09;;;;;;;10.50;9.20;;;;;;;8.31;93.92;97968.79;221573;1303;24416;-76
2023/11/20 21:17:12;;;;;;;13.80;10.60;;;;;;;8.30;93.59;97962.79;221491;1303;22616;-75
2023/11/20 21:22:17;;;;;;;11.50;9.60;;;;;;;8.27;93.71;97965.40;221634;1303;22595;-75
2023/11/20 21:27:19;;;;;;;14.00;9.90;;;;;;;8.22;93.66;97969.61;221571;1303;22582;-75
2023/11/20 21:32:22;;;;;;;12.60;8.30;;;;;;;8.13;93.33;97974.94;221625;1303;22579;-75
2023/11/20 21:37:24;;;;;;;13.50;9.80;;;;;;;8.03;93.30;97980.30;221634;1303;22675;-75
2023/11/20 21:42:27;;;;;;;17.60;9.80;;;;;;;7.99;93.52;97982.78;221427;1301;22601;-76
2023/11/20 21:47:29;;;;;;;13.20;9.50;;;;;;;7.97;93.92;97986.73;221540;1303;22747;-75
2023/11/20 21:52:32;;;;;;;16.10;11.90;;;;;;;7.94;93.74;97988.31;221414;1303;22578;-75
2023/11/20 21:57:35;;;;;;;16.90;12.00;;;;;;;7.94;94.20;97986.02;221540;1301;24972;-76
2023/11/20 22:02:38;;;;;;;15.30;12.10;;;;;;;7.93;94.26;97989.27;221615;1303;23109;-76
2023/11/20 22:07:41;;;;;;;19.40;14.30;;;;;;;7.93;94.56;97993.89;221563;1303;24263;-74
2023/11/20 22:12:43;;;;;;;17.80;13.90;;;;;;;7.97;94.56;98000.05;221469;1302;22996;-75
2023/11/20 22:17:45;;;;;;;16.50;12.40;;;;;;;8.00;94.60;97990.67;221637;1301;22969;-76
2023/11/20 22:22:48;;;;;;;18.50;13.40;;;;;;;8.01;94.42;97989.79;221542;1301;24322;-75
2023/11/20 22:27:50;;;;;;;20.70;14.70;;;;;;;8.00;94.83;97990.55;221602;1298;24335;-76
2023/11/20 22:32:52;;;;;;;21.40;16.20;;;;;;;8.01;94.59;97990.27;221502;1302;22604;-76
2023/11/20 22:37:55;;;;;;;20.10;15.10;;;;;;;8.05;94.67;97993.09;221648;1301;22601;-77
2023/11/20 22:43:04;;;;;;;18.80;13.80;;;;;;;8.08;94.78;97987.98;221551;1303;22610;-75
2023/11/20 22:48:06;;;;;;;22.20;16.40;;;;;;;8.10;94.73;97993.86;221510;1298;22597;-76
2023/11/20 22:53:08;;;;;;;19.10;15.00;;;;;;;8.13;95.10;97994.21;221532;1301;22606;-76
2023/11/20 22:58:10;;;;;;;21.80;15.10;;;;;;;8.10;94.20;97991.55;221718;1301;26055;-75
2023/11/20 23:03:13;;;;;;;16.80;13.10;;;;;;;8.06;94.67;97991.48;221531;1301;22576;-75
2023/11/20 23:08:15;;;;;;;15.90;11.20;;;;;;;8.04;94.75;97994.73;221675;1301;22651;-74
2023/11/20 23:13:17;;;;;;;15.20;11.20;;;;;;;8.05;94.51;97992.52;221522;1292;24400;-75
2023/11/20 23:18:20;;;;;;;14.00;10.70;;;;;;;8.07;94.92;97995.94;221667;1302;22601;-74
2023/11/20 23:23:22;;;;;;;14.10;12.10;;;;;;;8.09;94.92;97989.01;221536;1301;22563;-75